createdAt,value
2022-09-02T00:01:45.246Z,91.90
2022-09-02T00:04:23.785Z,92.00
2022-09-02T00:06:54.354Z,92.00
2022-09-02T00:09:25.158Z,92.00
2022-09-02T00:11:55.128Z,92.10
2022-09-02T00:14:30.306Z,92.20
2022-09-02T00:16:57.230Z,92.30
2022-09-02T00:19:26.842Z,92.20
2022-09-02T00:21:57.536Z,92.10
2022-09-02T00:24:25.128Z,92.20
2022-09-02T00:26:56.656Z,92.30
2022-09-02T00:29:25.619Z,92.30
2022-09-02T00:31:52.740Z,92.30
2022-09-02T00:34:20.798Z,92.30
2022-09-02T00:36:47.901Z,92.40
2022-09-02T00:39:15.073Z,92.30
2022-09-02T00:41:44.462Z,92.40
2022-09-02T00:44:16.295Z,92.50
2022-09-02T00:46:43.612Z,92.60
2022-09-02T00:49:24.149Z,92.70
2022-09-02T00:52:04.308Z,92.80
2022-09-02T00:54:36.379Z,92.80
2022-09-02T00:57:12.785Z,92.90
2022-09-02T01:00:25.086Z,93.00
2022-09-02T01:03:03.329Z,93.10
2022-09-02T01:05:35.484Z,93.10
2022-09-02T01:08:07.163Z,93.10
2022-09-02T01:10:35.573Z,93.30
2022-09-02T01:13:11.186Z,93.30
2022-09-02T01:15:47.160Z,93.50
2022-09-02T01:18:20.335Z,93.50
2022-09-02T01:20:47.784Z,93.50
2022-09-02T01:23:17.303Z,93.60
2022-09-02T01:25:45.343Z,93.60
2022-09-02T01:28:16.763Z,93.70
2022-09-02T01:30:51.835Z,94.00
2022-09-02T01:33:22.789Z,93.70
2022-09-02T01:35:53.383Z,93.80
2022-09-02T01:38:24.079Z,93.90
2022-09-02T01:40:52.619Z,94.00
2022-09-02T01:43:23.922Z,93.90
2022-09-02T01:45:54.292Z,94.00
2022-09-02T01:48:22.363Z,94.00
2022-09-02T01:51:02.176Z,93.90
2022-09-02T01:53:31.006Z,93.90
2022-09-02T01:55:58.196Z,93.90
2022-09-02T01:58:25.116Z,93.90
2022-09-02T02:00:52.796Z,94.00
2022-09-02T02:03:20.275Z,93.90
2022-09-02T02:05:47.106Z,93.80
2022-09-02T02:08:13.910Z,93.70
2022-09-02T02:10:42.848Z,93.60
2022-09-02T02:13:10.864Z,93.60
2022-09-02T02:15:41.151Z,93.60
2022-09-02T02:18:09.824Z,93.70
2022-09-02T02:20:38.160Z,93.60
2022-09-02T02:23:07.346Z,93.60
2022-09-02T02:25:34.671Z,93.60
2022-09-02T02:28:02.688Z,93.50
2022-09-02T02:30:29.571Z,93.60
2022-09-02T02:32:56.790Z,93.50
2022-09-02T02:35:23.598Z,93.60
2022-09-02T02:37:51.672Z,93.60
2022-09-02T02:40:23.635Z,93.60
2022-09-02T02:42:53.474Z,93.70
2022-09-02T02:45:22.006Z,93.70
2022-09-02T02:47:49.694Z,93.60
2022-09-02T02:50:19.526Z,93.60
2022-09-02T02:52:48.829Z,93.60
2022-09-02T02:55:17.170Z,93.50
2022-09-02T02:57:45.176Z,93.60
2022-09-02T03:00:26.146Z,93.80
2022-09-02T03:02:59.026Z,93.70
2022-09-02T03:05:27.129Z,93.70
2022-09-02T03:07:54.592Z,93.70
2022-09-02T03:10:22.222Z,93.80
2022-09-02T03:12:52.449Z,94.20
2022-09-02T03:15:21.033Z,94.00
2022-09-02T03:17:48.492Z,94.00
2022-09-02T03:20:18.040Z,94.00
2022-09-02T03:22:50.563Z,94.00
2022-09-02T03:25:20.899Z,94.10
2022-09-02T03:27:49.634Z,94.20
2022-09-02T03:30:22.102Z,94.30
2022-09-02T03:32:50.725Z,94.30
2022-09-02T03:35:20.759Z,94.40
2022-09-02T03:37:49.872Z,94.40
2022-09-02T03:40:22.446Z,94.60
2022-09-02T03:42:50.025Z,94.70
2022-09-02T03:45:17.765Z,94.70
2022-09-02T03:47:54.275Z,94.80
2022-09-02T03:50:33.408Z,94.90
2022-09-02T03:53:00.593Z,94.90
2022-09-02T03:55:27.991Z,95.00
2022-09-02T03:57:55.033Z,95.00
2022-09-02T04:00:29.802Z,95.10
2022-09-02T04:02:56.733Z,95.20
2022-09-02T04:05:25.033Z,95.20
2022-09-02T04:07:52.627Z,95.40
2022-09-02T04:10:21.908Z,95.50
2022-09-02T04:12:50.236Z,95.50
2022-09-02T04:15:19.058Z,95.50
2022-09-02T04:19:01.497Z,95.70
2022-09-02T04:21:31.942Z,96.00
2022-09-02T04:23:58.830Z,95.90
2022-09-02T04:26:25.648Z,96.10
2022-09-02T04:28:54.131Z,96.30
2022-09-02T04:31:25.773Z,96.40
2022-09-02T04:33:53.698Z,96.60
2022-09-02T04:36:22.407Z,96.60
2022-09-02T04:38:51.931Z,96.70
2022-09-02T04:41:28.425Z,96.90
2022-09-02T04:43:58.393Z,97.10
2022-09-02T04:46:25.967Z,97.20
2022-09-02T04:49:01.284Z,97.40
2022-09-02T04:51:28.120Z,97.50
2022-09-02T04:53:55.426Z,97.60
2022-09-02T04:56:28.631Z,97.80
2022-09-02T04:58:56.002Z,97.80
2022-09-02T05:01:27.467Z,97.90
2022-09-02T05:03:55.000Z,98.10
2022-09-02T05:06:27.511Z,98.10
2022-09-02T05:09:00.475Z,98.20
2022-09-02T05:11:29.380Z,98.30
2022-09-02T05:14:02.294Z,98.50
2022-09-02T05:16:37.901Z,98.70
2022-09-02T05:19:08.581Z,98.90
2022-09-02T05:21:40.713Z,99.20
2022-09-02T05:24:07.702Z,99.20
2022-09-02T05:26:35.980Z,99.20
2022-09-02T05:29:06.907Z,99.00
2022-09-02T05:31:34.181Z,98.90
2022-09-02T05:34:01.077Z,98.90
2022-09-02T05:36:27.967Z,98.80
2022-09-02T05:38:54.767Z,98.70
2022-09-02T05:41:24.103Z,98.70
2022-09-02T05:43:57.834Z,98.50
2022-09-02T05:46:29.575Z,98.30
2022-09-02T05:49:07.677Z,98.10
2022-09-02T05:51:59.901Z,98.00
2022-09-02T05:54:31.280Z,97.80
2022-09-02T05:57:02.464Z,97.70
2022-09-02T05:59:33.020Z,97.60
2022-09-02T06:01:59.936Z,97.60
2022-09-02T06:04:26.887Z,97.30
2022-09-02T06:06:54.329Z,97.20
2022-09-02T06:09:24.394Z,97.20
2022-09-02T06:11:52.357Z,97.50
2022-09-02T06:14:27.364Z,97.00
2022-09-02T06:16:57.892Z,96.30
2022-09-02T06:19:28.890Z,95.00
2022-09-02T06:21:57.321Z,95.80
2022-09-02T06:24:25.426Z,95.70
2022-09-02T06:26:55.888Z,95.40
2022-09-02T06:29:25.578Z,95.20
2022-09-02T06:31:53.249Z,95.50
2022-09-02T06:34:23.928Z,95.30
2022-09-02T06:36:51.150Z,94.60
2022-09-02T06:39:22.143Z,94.60
2022-09-02T06:41:49.602Z,94.50
2022-09-02T06:44:18.366Z,94.10
2022-09-02T06:46:49.251Z,94.00
2022-09-02T06:49:23.373Z,93.40
2022-09-02T06:51:52.382Z,93.10
2022-09-02T06:54:22.195Z,92.70
2022-09-02T06:56:51.125Z,91.80
2022-09-02T06:59:20.716Z,90.70
2022-09-02T07:01:48.890Z,91.00
2022-09-02T07:04:36.115Z,91.10
2022-09-02T07:07:06.830Z,90.30
2022-09-02T07:09:33.832Z,90.40
2022-09-02T07:12:05.736Z,90.90
2022-09-02T07:14:39.171Z,90.60
2022-09-02T07:17:07.814Z,90.70
2022-09-02T07:19:34.843Z,90.60
2022-09-02T07:22:04.811Z,89.90
2022-09-02T07:24:31.786Z,90.00
2022-09-02T07:26:58.733Z,89.70
2022-09-02T07:29:26.289Z,88.10
2022-09-02T07:31:53.149Z,86.80
2022-09-02T07:34:20.887Z,86.40
2022-09-02T07:36:48.559Z,80.10
2022-09-02T07:39:18.141Z,80.40
2022-09-02T07:41:49.222Z,80.50
2022-09-02T07:44:18.910Z,81.00
2022-09-02T07:46:46.858Z,81.70
2022-09-02T07:49:15.635Z,83.50
2022-09-02T07:51:49.145Z,83.70
2022-09-02T07:54:20.322Z,81.70
2022-09-02T07:56:47.466Z,83.10
2022-09-02T07:59:14.286Z,80.10
2022-09-02T08:04:16.292Z,79.70
2022-09-02T08:06:43.364Z,78.70
2022-09-02T08:09:11.515Z,78.40
2022-09-02T08:11:47.533Z,74.80
2022-09-02T08:14:20.311Z,74.40
2022-09-02T08:16:48.403Z,72.70
2022-09-02T08:19:15.519Z,72.90
2022-09-02T08:21:42.494Z,73.90
2022-09-02T08:24:10.041Z,76.30
2022-09-02T08:26:37.291Z,74.40
2022-09-02T08:29:06.507Z,74.40
2022-09-02T08:31:34.458Z,71.90
2022-09-02T08:34:01.591Z,74.40
2022-09-02T08:36:29.109Z,75.00
2022-09-02T08:38:56.401Z,75.80
2022-09-02T08:41:34.252Z,75.70
2022-09-02T08:44:02.501Z,77.70
2022-09-02T08:46:33.878Z,77.20
2022-09-02T08:49:08.268Z,75.80
2022-09-02T08:51:51.043Z,75.70
2022-09-02T08:54:49.729Z,73.60
2022-09-02T08:57:17.301Z,73.80
2022-09-02T08:59:45.934Z,71.30
2022-09-02T09:02:30.004Z,69.20
2022-09-02T09:06:00.942Z,65.00
2022-09-02T09:08:45.074Z,61.80
2022-09-02T09:12:01.286Z,60.70
2022-09-02T09:14:49.507Z,57.00
2022-09-02T09:17:30.144Z,59.30
2022-09-02T09:20:03.657Z,58.80
2022-09-02T09:22:37.339Z,59.80
2022-09-02T09:25:13.881Z,62.50
2022-09-02T09:27:40.843Z,62.30
2022-09-02T09:30:15.552Z,64.60
2022-09-02T09:33:04.230Z,65.70
2022-09-02T09:35:55.304Z,65.10
2022-09-02T09:38:32.522Z,65.50
2022-09-02T09:41:24.043Z,65.80
2022-09-02T09:43:50.845Z,65.20
2022-09-02T09:46:32.182Z,65.70
2022-09-02T09:48:59.049Z,65.80
2022-09-02T09:51:26.065Z,67.00
2022-09-02T09:53:53.051Z,63.10
2022-09-02T09:56:27.302Z,64.50
2022-09-02T09:58:54.525Z,65.80
2022-09-02T10:01:33.542Z,62.80
2022-09-02T10:04:32.388Z,62.70
2022-09-02T10:06:56.718Z,62.10
2022-09-02T10:09:33.219Z,63.50
2022-09-02T10:12:06.655Z,62.50
2022-09-02T10:14:39.474Z,62.50
2022-09-02T10:17:34.012Z,62.40
2022-09-02T10:20:32.003Z,60.00
2022-09-02T10:23:24.813Z,57.50
2022-09-02T10:26:28.139Z,56.70
2022-09-02T10:29:34.868Z,55.90
2022-09-02T10:32:32.464Z,55.60
2022-09-02T10:35:20.950Z,54.70
2022-09-02T10:38:24.648Z,56.90
2022-09-02T10:41:18.178Z,57.80
2022-09-02T10:44:26.537Z,58.70
2022-09-02T10:47:31.678Z,58.90
2022-09-02T10:50:11.992Z,57.90
2022-09-02T10:53:09.512Z,58.00
2022-09-02T10:55:58.439Z,58.10
2022-09-02T10:58:54.522Z,57.70
2022-09-02T11:01:41.803Z,57.30
2022-09-02T11:04:43.247Z,54.50
2022-09-02T11:07:18.530Z,55.70
2022-09-02T11:09:50.437Z,56.00
2022-09-02T11:12:34.968Z,56.40
2022-09-02T11:15:22.059Z,57.80
2022-09-02T11:18:03.863Z,58.20
2022-09-02T11:20:54.335Z,55.90
2022-09-02T11:23:44.876Z,56.40
2022-09-02T11:26:27.730Z,55.50
2022-09-02T11:29:37.259Z,55.80
2022-09-02T11:32:41.128Z,56.10
2022-09-02T11:35:16.852Z,56.30
2022-09-02T11:37:54.754Z,57.70
2022-09-02T11:40:34.696Z,57.80
2022-09-02T11:43:37.683Z,58.20
2022-09-02T11:46:19.399Z,59.00
2022-09-02T11:49:36.975Z,59.00
2022-09-02T11:52:47.073Z,59.60
2022-09-02T11:55:34.065Z,59.60
2022-09-02T11:58:02.093Z,57.40
2022-09-02T12:00:58.506Z,57.90
2022-09-02T12:04:06.776Z,57.60
2022-09-02T12:06:20.232Z,56.60
2022-09-02T12:08:50.048Z,56.30
2022-09-02T12:11:45.847Z,57.20
2022-09-02T12:14:24.869Z,55.10
2022-09-02T12:17:03.705Z,56.60
2022-09-02T12:19:51.714Z,57.00
2022-09-02T12:22:21.745Z,56.80
2022-09-02T12:24:58.479Z,57.30
2022-09-02T12:27:36.597Z,57.00
2022-09-02T12:30:12.693Z,57.10
2022-09-02T12:32:51.013Z,57.40
2022-09-02T12:35:30.803Z,57.50
2022-09-02T12:38:24.498Z,57.40
2022-09-02T12:40:55.890Z,58.10
2022-09-02T12:43:35.259Z,58.40
2022-09-02T12:46:36.903Z,58.50
2022-09-02T12:49:41.326Z,58.50
2022-09-02T12:52:32.400Z,59.10
2022-09-02T12:55:28.439Z,58.60
2022-09-02T12:58:06.929Z,57.80
2022-09-02T13:00:52.382Z,58.90
2022-09-02T13:04:03.131Z,59.40
2022-09-02T13:07:22.407Z,59.10
2022-09-02T13:10:19.789Z,58.30
2022-09-02T13:13:36.342Z,58.20
2022-09-02T13:16:44.693Z,58.70
2022-09-02T13:19:57.459Z,58.20
2022-09-02T13:23:00.835Z,58.80
2022-09-02T13:26:48.933Z,58.90
2022-09-02T13:30:14.483Z,58.40
2022-09-02T13:32:42.235Z,59.40
2022-09-02T13:35:25.911Z,59.20
2022-09-02T13:38:02.606Z,58.70
2022-09-02T13:40:36.117Z,58.90
2022-09-02T13:43:18.062Z,58.30
2022-09-02T13:45:47.860Z,59.00
2022-09-02T13:48:23.245Z,59.20
2022-09-02T13:50:53.753Z,58.20
2022-09-02T13:53:59.552Z,58.40
2022-09-02T13:56:32.597Z,58.30
2022-09-02T13:58:59.541Z,59.40
2022-09-02T14:01:33.138Z,58.10
2022-09-02T14:04:11.095Z,58.30
2022-09-02T14:06:44.254Z,58.50
2022-09-02T14:09:30.709Z,58.10
2022-09-02T14:12:00.563Z,58.20
2022-09-02T14:14:28.288Z,58.80
2022-09-02T14:17:26.719Z,57.80
2022-09-02T14:20:19.825Z,56.70
2022-09-02T14:22:55.583Z,57.00
2022-09-02T14:25:27.402Z,56.70
2022-09-02T14:28:00.669Z,57.20
2022-09-02T14:30:36.245Z,56.90
2022-09-02T14:33:45.541Z,56.30
2022-09-02T14:36:38.235Z,55.60
2022-09-02T14:39:16.800Z,57.00
2022-09-02T14:41:51.020Z,57.30
2022-09-02T14:44:36.340Z,56.70
2022-09-02T14:47:14.784Z,57.00
2022-09-02T14:49:55.440Z,55.60
2022-09-02T14:52:29.749Z,56.30
2022-09-02T14:54:59.078Z,56.40
2022-09-02T14:57:35.891Z,55.60
2022-09-02T15:00:11.879Z,56.50
2022-09-02T15:02:43.148Z,56.20
2022-09-02T15:05:15.463Z,55.90
2022-09-02T15:07:43.074Z,56.20
2022-09-02T15:10:10.367Z,55.90
2022-09-02T15:12:53.697Z,56.20
2022-09-02T15:15:21.138Z,55.60
2022-09-02T15:17:48.022Z,55.80
2022-09-02T15:20:15.545Z,55.10
2022-09-02T15:22:43.257Z,55.10
2022-09-02T15:25:10.571Z,55.00
2022-09-02T15:27:37.916Z,54.80
2022-09-02T15:30:09.244Z,55.20
2022-09-02T15:32:37.863Z,55.00
2022-09-02T15:35:06.993Z,53.90
2022-09-02T15:37:38.118Z,54.80
2022-09-02T15:40:08.708Z,54.60
2022-09-02T15:42:37.532Z,54.20
2022-09-02T15:45:08.996Z,54.60
2022-09-02T15:47:37.932Z,54.90
2022-09-02T15:50:06.471Z,55.00
2022-09-02T15:52:36.862Z,55.20
2022-09-02T15:55:04.212Z,55.80
2022-09-02T15:57:31.094Z,55.50
2022-09-02T15:59:58.209Z,55.80
2022-09-02T16:02:25.113Z,56.00
2022-09-02T16:04:52.144Z,56.80
2022-09-02T16:07:19.150Z,56.30
2022-09-02T16:09:46.222Z,56.50
2022-09-02T16:12:13.247Z,56.40
2022-09-02T16:14:40.186Z,56.50
2022-09-02T16:17:10.327Z,56.40
2022-09-02T16:19:37.269Z,56.60
2022-09-02T16:22:04.484Z,56.60
2022-09-02T16:24:31.589Z,56.70
2022-09-02T16:26:58.540Z,56.70
2022-09-02T16:29:27.138Z,57.20
2022-09-02T16:32:23.607Z,57.50
2022-09-02T16:34:42.736Z,57.40
2022-09-02T16:37:09.521Z,57.30
2022-09-02T16:39:37.004Z,58.00
2022-09-02T16:42:04.597Z,57.50
2022-09-02T16:44:33.831Z,57.50
2022-09-02T16:47:00.730Z,57.50
2022-09-02T16:49:27.546Z,57.70
2022-09-02T16:51:58.318Z,58.10
2022-09-02T16:54:31.341Z,57.30
2022-09-02T16:57:01.103Z,57.00
2022-09-02T16:59:28.177Z,57.30
2022-09-02T17:01:55.340Z,57.30
2022-09-02T17:04:22.262Z,57.60
2022-09-02T17:06:49.258Z,57.60
2022-09-02T17:09:16.464Z,57.60
2022-09-02T17:11:45.207Z,57.50
2022-09-02T17:14:16.474Z,57.70
2022-09-02T17:16:50.765Z,57.90
2022-09-02T17:19:24.453Z,58.00
2022-09-02T17:21:54.965Z,58.20
2022-09-02T17:24:27.747Z,58.40
2022-09-02T17:26:56.093Z,58.40
2022-09-02T17:32:15.331Z,58.60
2022-09-02T17:34:42.225Z,58.80
2022-09-02T17:37:09.148Z,58.90
2022-09-02T17:39:36.124Z,59.00
2022-09-02T17:42:05.144Z,59.00
2022-09-02T17:44:37.485Z,59.00
2022-09-02T17:47:19.946Z,59.30
2022-09-02T17:49:48.346Z,59.00
2022-09-02T17:52:20.064Z,59.20
2022-09-02T17:54:51.514Z,59.40
2022-09-02T17:57:29.682Z,59.30
2022-09-02T18:00:10.970Z,59.60
2022-09-02T18:02:50.940Z,59.70
2022-09-02T18:05:41.140Z,59.80
2022-09-02T18:08:48.170Z,60.00
2022-09-02T18:11:16.343Z,60.40
2022-09-02T18:13:56.273Z,60.60
2022-09-02T18:17:01.678Z,60.90
2022-09-02T18:19:57.329Z,61.20
2022-09-02T18:23:03.521Z,61.60
2022-09-02T18:25:44.115Z,62.10
2022-09-02T18:29:18.000Z,62.30
2022-09-02T18:32:17.587Z,62.90
2022-09-02T18:35:13.879Z,63.40
2022-09-02T18:38:16.066Z,64.00
2022-09-02T18:41:20.072Z,64.70
2022-09-02T18:44:00.912Z,65.00
2022-09-02T18:46:39.550Z,65.60
2022-09-02T18:49:09.157Z,66.20
2022-09-02T18:51:43.153Z,66.80
2022-09-02T18:54:22.924Z,67.40
2022-09-02T18:56:58.126Z,67.90
2022-09-02T18:59:40.697Z,68.60
2022-09-02T19:02:25.613Z,69.30
2022-09-02T19:04:52.458Z,69.90
2022-09-02T19:07:39.540Z,70.10
2022-09-02T19:10:08.979Z,70.70
2022-09-02T19:12:38.038Z,71.00
2022-09-02T19:15:15.635Z,71.30
2022-09-02T19:17:44.434Z,71.80
2022-09-02T19:20:11.372Z,72.20
2022-09-02T19:22:47.959Z,72.60
2022-09-02T19:25:23.056Z,73.20
2022-09-02T19:27:53.417Z,73.70
2022-09-02T19:30:22.671Z,74.10
2022-09-02T19:32:53.778Z,75.20
2022-09-02T19:35:24.853Z,75.00
2022-09-02T19:37:54.197Z,75.50
2022-09-02T19:40:33.577Z,75.90
2022-09-02T19:43:03.390Z,76.40
2022-09-02T19:45:36.108Z,76.70
2022-09-02T19:48:08.112Z,77.20
2022-09-02T19:50:42.224Z,77.70
2022-09-02T19:53:25.578Z,77.80
2022-09-02T19:55:52.465Z,78.20
2022-09-02T19:58:19.315Z,78.60
2022-09-02T20:00:47.761Z,79.00
2022-09-02T20:03:15.061Z,79.20
2022-09-02T20:05:42.277Z,79.30
2022-09-02T20:08:09.340Z,79.50
2022-09-02T20:10:38.526Z,79.90
2022-09-02T20:13:06.831Z,80.30
2022-09-02T20:15:38.198Z,81.00
2022-09-02T20:18:15.575Z,81.50
2022-09-02T20:20:45.559Z,81.90
2022-09-02T20:23:17.280Z,82.30
2022-09-02T20:26:24.558Z,82.60
2022-09-02T20:29:19.990Z,83.30
2022-09-02T20:32:28.305Z,83.90
2022-09-02T20:35:14.652Z,83.80
2022-09-02T20:37:55.067Z,84.30
2022-09-02T20:40:46.839Z,84.60
2022-09-02T20:43:28.790Z,85.00
2022-09-02T20:46:37.443Z,85.10
2022-09-02T20:49:28.390Z,86.80
2022-09-02T20:52:35.922Z,86.40
2022-09-02T20:55:25.429Z,86.50
2022-09-02T20:58:24.854Z,86.90
2022-09-02T21:01:16.186Z,87.10
2022-09-02T21:04:24.499Z,87.50
2022-09-02T21:07:11.002Z,87.50
2022-09-02T21:10:34.695Z,87.80
2022-09-02T21:13:51.433Z,88.30
2022-09-02T21:16:30.652Z,88.60
2022-09-02T21:19:23.789Z,88.90
2022-09-02T21:22:09.178Z,89.80
2022-09-02T21:25:02.271Z,90.00
2022-09-02T21:28:05.951Z,90.20
2022-09-02T21:30:40.770Z,90.30
2022-09-02T21:33:15.252Z,90.40
2022-09-02T21:35:51.066Z,90.90
2022-09-02T21:38:49.591Z,90.80
2022-09-02T21:41:16.332Z,90.90
2022-09-02T21:44:04.486Z,91.00
2022-09-02T21:46:58.261Z,91.10
2022-09-02T21:49:37.099Z,91.30
2022-09-02T21:52:49.581Z,91.30
2022-09-02T21:56:15.261Z,91.60
2022-09-02T21:58:48.734Z,91.70
2022-09-02T22:01:46.923Z,91.80
2022-09-02T22:04:51.919Z,92.00
2022-09-02T22:07:39.040Z,92.30
2022-09-02T22:10:30.168Z,92.10
2022-09-02T22:13:01.197Z,92.20
2022-09-02T22:16:09.182Z,92.30
2022-09-02T22:18:42.655Z,92.50
2022-09-02T22:21:20.660Z,92.60
2022-09-02T22:23:47.870Z,92.70
2022-09-02T22:26:50.043Z,92.90
2022-09-02T22:29:59.795Z,93.10
2022-09-02T22:32:35.665Z,93.10
2022-09-02T22:35:15.099Z,93.20
2022-09-02T22:38:25.527Z,93.40
2022-09-02T22:41:01.674Z,93.50
2022-09-02T22:44:00.865Z,93.60
2022-09-02T22:47:21.686Z,93.70
2022-09-02T22:50:15.821Z,93.80
2022-09-02T22:52:47.306Z,93.80
2022-09-02T22:55:21.233Z,93.90
2022-09-02T22:58:15.119Z,94.00
2022-09-02T23:01:00.967Z,94.70
2022-09-02T23:04:30.403Z,94.30
2022-09-02T23:07:01.681Z,94.90
2022-09-02T23:09:28.531Z,95.00
2022-09-02T23:12:07.051Z,95.10
2022-09-02T23:14:38.643Z,95.30
2022-09-02T23:17:39.154Z,94.80
2022-09-02T23:20:57.841Z,95.40
2022-09-02T23:23:39.755Z,95.60
2022-09-02T23:26:33.854Z,95.60
2022-09-02T23:29:26.489Z,95.70
2022-09-02T23:32:09.430Z,95.80
2022-09-02T23:34:58.499Z,95.90
2022-09-02T23:37:32.366Z,96.00
2022-09-02T23:40:22.486Z,96.20
2022-09-02T23:42:50.301Z,96.30
2022-09-02T23:45:32.924Z,96.20
2022-09-02T23:48:05.514Z,96.40
2022-09-02T23:51:06.530Z,96.50
2022-09-02T23:53:50.159Z,96.60
2022-09-02T23:56:35.040Z,96.60
2022-09-02T23:59:26.163Z,96.60
